createdAt,value
2022-12-22T00:01:37.496Z,1.13
2022-12-22T00:04:23.997Z,0.85
2022-12-22T00:07:09.169Z,0.70
2022-12-22T00:09:54.064Z,0.90
2022-12-22T00:12:38.871Z,1.20
2022-12-22T00:15:24.019Z,0.70
2022-12-22T00:18:09.023Z,0.50
2022-12-22T00:20:54.379Z,1.08
2022-12-22T00:23:39.740Z,1.05
2022-12-22T00:26:24.941Z,1.17
2022-12-22T00:29:10.300Z,0.93
2022-12-22T00:31:55.149Z,1.20
2022-12-22T00:34:41.256Z,1.25
2022-12-22T00:37:30.987Z,1.00
2022-12-22T00:40:16.635Z,1.77
2022-12-22T00:43:01.928Z,0.82
2022-12-22T00:45:47.191Z,0.63
2022-12-22T00:48:40.908Z,0.60
2022-12-22T00:51:26.297Z,0.70
2022-12-22T00:54:11.440Z,0.70
2022-12-22T00:56:56.545Z,0.63
2022-12-22T00:59:41.519Z,0.77
2022-12-22T01:02:26.843Z,0.70
2022-12-22T01:05:11.981Z,0.60
2022-12-22T01:07:57.219Z,0.60
2022-12-22T01:10:43.177Z,0.90
2022-12-22T01:13:30.004Z,1.15
2022-12-22T01:16:15.012Z,0.73
2022-12-22T01:19:00.412Z,0.85
2022-12-22T01:21:45.281Z,0.43
2022-12-22T01:24:31.452Z,0.45
2022-12-22T01:27:16.604Z,0.45
2022-12-22T01:30:02.046Z,0.35
2022-12-22T01:32:47.165Z,0.30
2022-12-22T01:35:43.140Z,0.40
2022-12-22T01:38:28.271Z,0.40
2022-12-22T01:41:14.721Z,0.38
2022-12-22T01:43:59.879Z,0.60
2022-12-22T01:46:49.515Z,0.40
2022-12-22T01:49:37.771Z,0.35
2022-12-22T01:52:23.287Z,0.30
2022-12-22T01:55:09.026Z,0.40
2022-12-22T01:57:55.164Z,0.35
2022-12-22T02:00:40.517Z,0.30
2022-12-22T02:03:38.875Z,0.43
2022-12-22T02:06:42.545Z,0.30
2022-12-22T02:09:30.584Z,0.40
2022-12-22T02:12:21.036Z,0.30
2022-12-22T02:15:13.193Z,0.40
2022-12-22T02:18:05.384Z,0.30
2022-12-22T02:21:07.310Z,0.50
2022-12-22T02:23:52.217Z,0.70
2022-12-22T02:26:47.766Z,0.30
2022-12-22T02:29:33.836Z,0.47
2022-12-22T02:32:18.915Z,0.30
2022-12-22T02:35:04.160Z,0.50
2022-12-22T02:37:55.333Z,0.30
2022-12-22T02:40:46.245Z,0.60
2022-12-22T02:43:31.079Z,0.40
2022-12-22T02:46:45.210Z,0.60
2022-12-22T02:49:35.699Z,0.63
2022-12-22T02:52:29.461Z,0.38
2022-12-22T02:55:14.556Z,0.70
2022-12-22T02:57:59.749Z,0.77
2022-12-22T03:00:44.765Z,0.60
2022-12-22T03:03:29.901Z,0.63
2022-12-22T03:06:15.295Z,0.80
2022-12-22T03:09:00.184Z,0.57
2022-12-22T03:11:45.000Z,0.57
2022-12-22T03:14:30.117Z,0.50
2022-12-22T03:17:15.032Z,0.65
2022-12-22T03:20:00.266Z,0.60
2022-12-22T03:22:45.249Z,0.38
2022-12-22T03:25:30.346Z,0.73
2022-12-22T03:28:02.177Z,0.35
2022-12-22T03:30:28.915Z,0.40
2022-12-22T03:32:55.375Z,0.50
2022-12-22T03:35:21.853Z,0.40
2022-12-22T03:37:48.364Z,0.35
2022-12-22T03:40:14.944Z,0.45
2022-12-22T03:42:59.780Z,0.40
2022-12-22T03:45:44.601Z,0.57
2022-12-22T03:48:11.087Z,0.77
2022-12-22T03:50:37.601Z,0.50
2022-12-22T03:53:04.401Z,0.60
2022-12-22T03:55:31.025Z,0.60
2022-12-22T03:57:57.496Z,0.60
2022-12-22T04:00:24.043Z,0.50
2022-12-22T04:02:50.624Z,0.60
2022-12-22T04:05:17.346Z,0.45
2022-12-22T04:07:43.919Z,0.63
2022-12-22T04:10:28.902Z,0.50
2022-12-22T04:12:55.470Z,0.70
2022-12-22T04:15:29.219Z,0.70
2022-12-22T04:20:22.894Z,0.50
2022-12-22T04:22:49.575Z,0.47
2022-12-22T04:25:16.266Z,0.43
2022-12-22T04:27:42.813Z,0.30
2022-12-22T04:30:09.664Z,0.32
2022-12-22T04:32:36.248Z,0.40
2022-12-22T04:35:02.874Z,0.40
2022-12-22T04:37:29.444Z,0.20
2022-12-22T04:39:55.936Z,0.40
2022-12-22T04:42:22.461Z,0.38
2022-12-22T04:44:49.754Z,0.40
2022-12-22T04:47:16.333Z,0.45
2022-12-22T04:49:42.911Z,0.88
2022-12-22T04:52:09.434Z,0.30
2022-12-22T04:54:35.896Z,0.30
2022-12-22T04:57:02.601Z,0.40
2022-12-22T04:59:29.103Z,0.25
2022-12-22T05:01:55.842Z,0.40
2022-12-22T05:04:24.014Z,0.40
2022-12-22T05:06:50.610Z,0.20
2022-12-22T05:09:17.082Z,0.40
2022-12-22T05:11:43.580Z,0.40
2022-12-22T05:14:10.037Z,0.40
2022-12-22T05:16:36.526Z,0.40
2022-12-22T05:19:03.271Z,0.38
2022-12-22T05:21:29.781Z,0.57
2022-12-22T05:23:56.242Z,0.40
2022-12-22T05:26:22.752Z,0.43
2022-12-22T05:28:49.227Z,0.32
2022-12-22T05:31:17.342Z,0.35
2022-12-22T05:33:44.419Z,0.40
2022-12-22T05:36:11.236Z,0.20
2022-12-22T05:38:38.493Z,0.30
2022-12-22T05:41:05.091Z,0.68
2022-12-22T05:43:32.232Z,0.30
2022-12-22T05:46:01.400Z,0.30
2022-12-22T05:48:33.655Z,0.55
2022-12-22T05:51:03.940Z,0.22
2022-12-22T05:53:30.402Z,0.40
2022-12-22T05:55:58.128Z,0.70
2022-12-22T05:58:24.836Z,0.30
2022-12-22T06:00:51.388Z,0.38
2022-12-22T06:03:18.027Z,0.38
2022-12-22T06:05:44.604Z,0.50
2022-12-22T06:08:11.116Z,0.30
2022-12-22T06:10:37.592Z,0.40
2022-12-22T06:13:04.140Z,0.40
2022-12-22T06:15:30.610Z,1.88
2022-12-22T06:17:57.116Z,0.40
2022-12-22T06:20:23.618Z,0.38
2022-12-22T06:22:50.103Z,0.75
2022-12-22T06:25:18.738Z,0.38
2022-12-22T06:27:45.854Z,0.35
2022-12-22T06:30:12.495Z,0.68
2022-12-22T06:32:39.339Z,0.40
2022-12-22T06:35:07.027Z,0.40
2022-12-22T06:37:33.612Z,0.40
2022-12-22T06:40:00.116Z,0.40
2022-12-22T06:42:44.972Z,0.50
2022-12-22T06:45:11.729Z,0.45
2022-12-22T06:47:38.195Z,0.40
2022-12-22T06:50:05.061Z,0.20
2022-12-22T06:52:31.555Z,0.30
2022-12-22T06:54:58.025Z,0.30
2022-12-22T06:57:24.497Z,0.47
2022-12-22T06:59:57.124Z,0.40
2022-12-22T07:02:24.227Z,0.40
2022-12-22T07:04:50.791Z,0.60
2022-12-22T07:07:17.267Z,1.00
2022-12-22T07:09:43.785Z,0.40
2022-12-22T07:12:10.296Z,0.63
2022-12-22T07:14:36.841Z,0.55
2022-12-22T07:17:03.719Z,0.40
2022-12-22T07:19:30.194Z,0.50
2022-12-22T07:21:56.695Z,0.30
2022-12-22T07:24:26.048Z,0.70
2022-12-22T07:26:53.705Z,0.60
2022-12-22T07:29:20.218Z,0.50
2022-12-22T07:31:46.852Z,0.60
2022-12-22T07:34:13.732Z,0.50
2022-12-22T07:36:40.303Z,0.75
2022-12-22T07:39:06.932Z,0.40
2022-12-22T07:41:51.785Z,0.75
2022-12-22T07:44:18.280Z,0.80
2022-12-22T07:46:44.774Z,0.50
2022-12-22T07:49:29.899Z,1.05
2022-12-22T07:51:57.312Z,0.80
2022-12-22T07:54:23.983Z,0.45
2022-12-22T07:56:50.520Z,0.70
2022-12-22T07:59:17.312Z,0.50
2022-12-22T08:01:45.577Z,0.73
2022-12-22T08:04:13.123Z,1.13
2022-12-22T08:06:39.914Z,0.63
2022-12-22T08:09:07.084Z,0.90
2022-12-22T08:11:34.218Z,0.60
2022-12-22T08:14:01.918Z,0.95
2022-12-22T08:16:29.312Z,0.80
2022-12-22T08:18:56.180Z,0.82
2022-12-22T08:21:22.815Z,0.88
2022-12-22T08:23:49.302Z,1.05
2022-12-22T08:26:22.093Z,1.13
2022-12-22T08:28:53.523Z,0.50
2022-12-22T08:31:20.811Z,0.85
2022-12-22T08:33:47.905Z,0.60
2022-12-22T08:36:14.665Z,1.85
2022-12-22T08:38:42.003Z,1.40
2022-12-22T08:41:12.958Z,1.08
2022-12-22T08:43:39.469Z,0.80
2022-12-22T08:46:06.042Z,0.70
2022-12-22T08:48:32.639Z,1.10
2022-12-22T08:50:59.186Z,1.10
2022-12-22T08:54:03.015Z,0.85
2022-12-22T08:56:12.140Z,0.70
2022-12-22T08:58:40.533Z,1.27
2022-12-22T09:01:07.138Z,0.90
2022-12-22T09:03:33.836Z,1.75
2022-12-22T09:06:03.160Z,1.17
2022-12-22T09:08:29.647Z,0.82
2022-12-22T09:10:56.120Z,1.10
2022-12-22T09:13:22.646Z,1.00
2022-12-22T09:15:49.141Z,0.80
2022-12-22T09:18:15.605Z,1.35
2022-12-22T09:20:42.080Z,1.20
2022-12-22T09:23:08.586Z,1.13
2022-12-22T09:25:35.139Z,0.85
2022-12-22T09:28:01.660Z,1.10
2022-12-22T09:30:28.137Z,2.08
2022-12-22T09:32:54.772Z,1.23
2022-12-22T09:35:21.247Z,1.13
2022-12-22T09:37:48.736Z,1.10
2022-12-22T09:40:15.283Z,1.85
2022-12-22T09:42:41.784Z,0.88
2022-12-22T09:45:17.039Z,1.55
2022-12-22T09:47:45.453Z,1.30
2022-12-22T09:50:15.738Z,1.30
2022-12-22T09:52:49.483Z,0.90
2022-12-22T09:57:42.403Z,1.05
2022-12-22T10:00:15.676Z,1.20
2022-12-22T10:03:05.953Z,1.05
2022-12-22T10:05:38.627Z,0.90
2022-12-22T10:08:10.524Z,1.35
2022-12-22T10:10:37.119Z,2.22
2022-12-22T10:13:05.223Z,1.08
2022-12-22T10:15:36.324Z,1.02
2022-12-22T10:18:16.286Z,1.55
2022-12-22T10:20:45.201Z,1.10
2022-12-22T10:23:17.228Z,1.10
2022-12-22T10:28:53.276Z,0.90
2022-12-22T10:31:22.619Z,1.20
2022-12-22T10:33:50.689Z,1.13
2022-12-22T10:36:22.680Z,1.35
2022-12-22T10:38:58.503Z,0.88
2022-12-22T10:41:26.939Z,1.30
2022-12-22T10:43:56.127Z,1.20
2022-12-22T10:46:34.283Z,1.05
2022-12-22T10:49:09.913Z,1.25
2022-12-22T10:51:36.454Z,1.00
2022-12-22T10:54:02.986Z,1.23
2022-12-22T10:56:30.971Z,1.52
2022-12-22T10:59:05.997Z,0.90
2022-12-22T11:01:36.235Z,1.10
2022-12-22T11:04:35.132Z,0.88
2022-12-22T11:07:01.604Z,0.98
2022-12-22T11:09:35.769Z,1.02
2022-12-22T11:12:14.654Z,1.65
2022-12-22T11:14:53.155Z,1.45
2022-12-22T11:17:28.835Z,1.42
2022-12-22T11:19:58.192Z,1.00
2022-12-22T11:22:33.801Z,1.08
2022-12-22T11:25:22.715Z,1.45
2022-12-22T11:27:54.971Z,1.40
2022-12-22T11:30:27.442Z,1.25
2022-12-22T11:33:11.820Z,1.23
2022-12-22T11:35:44.264Z,1.27
2022-12-22T11:38:10.736Z,1.48
2022-12-22T11:40:37.167Z,1.77
2022-12-22T11:43:22.626Z,1.42
2022-12-22T11:45:57.995Z,1.40
2022-12-22T11:48:36.508Z,1.33
2022-12-22T11:51:25.487Z,1.23
2022-12-22T11:53:56.908Z,0.88
2022-12-22T11:56:24.414Z,1.23
2022-12-22T11:59:09.629Z,1.75
2022-12-22T12:02:14.672Z,1.33
2022-12-22T12:04:59.459Z,1.33
2022-12-22T12:07:28.773Z,1.27
2022-12-22T12:10:07.373Z,1.40
2022-12-22T12:12:36.869Z,1.02
2022-12-22T12:15:06.083Z,1.20
2022-12-22T12:17:50.963Z,1.38
2022-12-22T12:20:25.479Z,1.90
2022-12-22T12:22:52.027Z,1.33
2022-12-22T12:25:28.605Z,1.50
2022-12-22T12:27:55.062Z,1.30
2022-12-22T12:30:39.120Z,1.55
2022-12-22T12:33:08.783Z,1.95
2022-12-22T12:35:53.728Z,1.98
2022-12-22T12:38:47.963Z,1.50
2022-12-22T12:41:13.597Z,1.13
2022-12-22T12:43:40.797Z,1.42
2022-12-22T12:46:46.151Z,1.60
2022-12-22T12:49:31.361Z,1.65
2022-12-22T12:51:57.813Z,2.08
2022-12-22T12:54:27.080Z,1.60
2022-12-22T12:56:56.653Z,2.10
2022-12-22T12:59:52.688Z,2.65
2022-12-22T13:02:28.486Z,1.85
2022-12-22T13:05:13.633Z,3.67
2022-12-22T13:07:58.665Z,1.83
2022-12-22T13:10:25.862Z,2.00
2022-12-22T13:12:53.959Z,3.97
2022-12-22T13:15:34.292Z,1.20
2022-12-22T13:18:02.222Z,1.27
2022-12-22T13:20:36.049Z,1.80
2022-12-22T13:23:04.408Z,1.48
2022-12-22T13:25:41.550Z,2.17
2022-12-22T13:28:13.153Z,1.30
2022-12-22T13:30:39.927Z,1.35
2022-12-22T13:33:11.125Z,1.27
2022-12-22T13:35:47.154Z,0.80
2022-12-22T13:38:28.158Z,1.20
2022-12-22T13:40:54.971Z,1.13
2022-12-22T13:43:21.596Z,1.10
2022-12-22T13:45:50.013Z,1.25
2022-12-22T13:48:19.522Z,1.15
2022-12-22T13:50:51.333Z,1.40
2022-12-22T13:56:38.451Z,1.70
2022-12-22T13:59:05.056Z,1.77
2022-12-22T14:01:31.643Z,2.00
2022-12-22T14:04:03.039Z,2.38
2022-12-22T14:06:37.979Z,2.05
2022-12-22T14:09:20.718Z,2.15
2022-12-22T14:11:53.046Z,1.88
2022-12-22T14:14:23.786Z,2.13
2022-12-22T14:16:51.336Z,1.48
2022-12-22T14:19:18.544Z,3.22
2022-12-22T14:21:46.937Z,1.67
2022-12-22T14:24:17.135Z,1.88
2022-12-22T14:26:43.701Z,3.30
2022-12-22T14:29:14.027Z,1.83
2022-12-22T14:31:53.873Z,2.17
2022-12-22T14:34:28.118Z,2.20
2022-12-22T14:36:54.673Z,2.15
2022-12-22T14:39:23.705Z,2.08
2022-12-22T14:41:52.257Z,2.70
2022-12-22T14:44:18.695Z,2.28
2022-12-22T14:46:48.600Z,1.67
2022-12-22T14:49:16.750Z,2.65
2022-12-22T14:51:43.595Z,2.63
2022-12-22T14:54:19.365Z,2.50
2022-12-22T14:56:50.955Z,2.17
2022-12-22T14:59:27.269Z,2.03
2022-12-22T15:02:16.949Z,2.15
2022-12-22T15:04:43.532Z,2.17
2022-12-22T15:07:54.336Z,2.05
2022-12-22T15:10:20.713Z,2.13
2022-12-22T15:12:48.881Z,1.95
2022-12-22T15:15:17.058Z,2.40
2022-12-22T15:17:48.068Z,2.20
2022-12-22T15:20:16.500Z,2.38
2022-12-22T15:22:43.219Z,2.00
2022-12-22T15:25:13.576Z,2.00
2022-12-22T15:27:40.051Z,2.30
2022-12-22T15:30:06.928Z,1.70
2022-12-22T15:32:37.848Z,1.70
2022-12-22T15:35:11.705Z,2.53
2022-12-22T15:37:38.174Z,2.38
2022-12-22T15:40:06.635Z,1.85
2022-12-22T15:42:33.113Z,2.50
2022-12-22T15:44:59.614Z,1.90
2022-12-22T15:47:26.126Z,2.53
2022-12-22T15:49:52.731Z,2.45
2022-12-22T15:52:19.340Z,2.47
2022-12-22T15:54:45.820Z,2.97
2022-12-22T15:57:13.216Z,2.33
2022-12-22T15:59:39.948Z,2.10
2022-12-22T16:02:10.745Z,1.98
2022-12-22T16:04:37.529Z,1.70
2022-12-22T16:07:04.155Z,2.20
2022-12-22T16:09:32.923Z,4.32
2022-12-22T16:11:59.403Z,2.58
2022-12-22T16:14:25.921Z,2.45
2022-12-22T16:16:52.402Z,2.40
2022-12-22T16:19:19.384Z,2.63
2022-12-22T16:21:47.949Z,1.65
2022-12-22T16:24:21.291Z,2.22
2022-12-22T16:26:47.820Z,2.22
2022-12-22T16:29:15.900Z,2.42
2022-12-22T16:31:42.629Z,1.90
2022-12-22T16:34:12.299Z,2.72
2022-12-22T16:36:38.926Z,3.03
2022-12-22T16:39:05.450Z,2.30
2022-12-22T16:41:31.966Z,2.97
2022-12-22T16:46:43.496Z,3.67
2022-12-22T16:49:10.048Z,2.92
2022-12-22T16:51:40.271Z,2.97
2022-12-22T16:54:06.789Z,2.20
2022-12-22T16:56:34.950Z,2.63
2022-12-22T16:59:04.558Z,2.22
2022-12-22T17:01:39.402Z,2.05
2022-12-22T17:04:14.990Z,2.33
2022-12-22T17:06:41.865Z,2.00
2022-12-22T17:09:13.662Z,2.40
2022-12-22T17:11:40.178Z,2.10
2022-12-22T17:14:13.787Z,2.20
2022-12-22T17:16:40.233Z,2.95
2022-12-22T17:19:06.791Z,4.65
2022-12-22T17:21:33.238Z,2.10
2022-12-22T17:24:04.091Z,2.75
2022-12-22T17:26:32.365Z,2.60
2022-12-22T17:28:59.464Z,2.30
2022-12-22T17:31:26.933Z,1.92
2022-12-22T17:33:53.518Z,2.72
2022-12-22T17:36:29.280Z,3.30
2022-12-22T17:38:55.787Z,4.50
2022-12-22T17:41:22.442Z,8.32
2022-12-22T17:43:48.913Z,5.40
2022-12-22T17:46:16.397Z,3.55
2022-12-22T17:48:43.602Z,4.05
2022-12-22T17:51:15.576Z,3.63
2022-12-22T17:53:42.270Z,4.97
2022-12-22T17:56:13.574Z,5.40
2022-12-22T17:58:40.104Z,4.22
2022-12-22T18:01:06.571Z,4.72
2022-12-22T18:03:33.942Z,3.55
2022-12-22T18:06:00.513Z,4.47
2022-12-22T18:08:27.299Z,3.97
2022-12-22T18:10:53.850Z,4.63
2022-12-22T18:13:21.360Z,3.80
2022-12-22T18:15:47.996Z,4.05
2022-12-22T18:18:15.526Z,2.95
2022-12-22T18:20:42.891Z,2.67
2022-12-22T18:23:28.647Z,3.00
2022-12-22T18:25:55.385Z,2.85
2022-12-22T18:28:21.845Z,2.67
2022-12-22T18:30:48.411Z,2.10
2022-12-22T18:33:14.907Z,2.38
2022-12-22T18:35:41.604Z,4.15
2022-12-22T18:38:21.617Z,4.95
2022-12-22T18:40:48.204Z,5.65
2022-12-22T18:43:14.721Z,5.97
2022-12-22T18:45:41.271Z,5.47
2022-12-22T18:48:08.860Z,7.28
2022-12-22T18:50:35.461Z,6.97
2022-12-22T18:53:03.434Z,5.22
2022-12-22T18:55:31.215Z,4.57
2022-12-22T18:57:58.177Z,2.67
2022-12-22T19:00:26.342Z,2.88
2022-12-22T19:02:53.813Z,3.15
2022-12-22T19:05:21.962Z,3.58
2022-12-22T19:07:48.496Z,7.20
2022-12-22T19:10:19.014Z,2.35
2022-12-22T19:12:49.473Z,3.17
2022-12-22T19:15:21.590Z,3.72
2022-12-22T19:17:48.732Z,4.28
2022-12-22T19:20:16.319Z,6.43
2022-12-22T19:22:43.644Z,2.90
2022-12-22T19:25:17.204Z,2.63
2022-12-22T19:27:44.201Z,2.35
2022-12-22T19:30:14.876Z,3.25
2022-12-22T19:32:45.974Z,2.67
2022-12-22T19:35:13.915Z,2.88
2022-12-22T19:37:40.421Z,3.42
2022-12-22T19:40:07.403Z,3.60
2022-12-22T19:42:35.172Z,2.28
2022-12-22T19:45:08.439Z,2.75
2022-12-22T19:47:37.372Z,3.28
2022-12-22T19:50:04.032Z,2.70
2022-12-22T19:52:30.520Z,4.45
2022-12-22T19:54:56.980Z,3.20
2022-12-22T19:57:23.713Z,5.70
2022-12-22T19:59:51.438Z,4.63
2022-12-22T20:02:21.406Z,4.28
2022-12-22T20:04:48.769Z,4.38
2022-12-22T20:07:19.401Z,4.85
2022-12-22T20:09:45.971Z,4.63
2022-12-22T20:12:23.580Z,3.22
2022-12-22T20:14:50.934Z,3.00
2022-12-22T20:17:18.172Z,3.75
2022-12-22T20:19:44.750Z,3.40
2022-12-22T20:22:15.255Z,2.50
2022-12-22T20:24:41.753Z,3.10
2022-12-22T20:27:16.804Z,3.40
2022-12-22T20:29:43.300Z,2.85
2022-12-22T20:32:12.855Z,2.78
2022-12-22T20:34:39.520Z,3.88
2022-12-22T20:37:06.043Z,4.32
2022-12-22T20:39:35.654Z,3.33
2022-12-22T20:42:02.127Z,3.13
2022-12-22T20:44:28.609Z,2.83
2022-12-22T20:46:57.946Z,3.53
2022-12-22T20:49:24.645Z,2.95
2022-12-22T20:51:51.111Z,2.80
2022-12-22T20:54:17.574Z,3.13
2022-12-22T20:56:44.864Z,3.55
2022-12-22T20:59:13.373Z,3.55
2022-12-22T21:01:40.027Z,3.08
2022-12-22T21:04:08.780Z,3.15
2022-12-22T21:06:37.941Z,3.25
2022-12-22T21:09:04.965Z,3.50
2022-12-22T21:11:31.654Z,4.05
2022-12-22T21:13:58.709Z,4.03
2022-12-22T21:16:26.735Z,4.82
2022-12-22T21:18:55.758Z,3.60
2022-12-22T21:21:22.641Z,3.58
2022-12-22T21:23:49.140Z,2.60
2022-12-22T21:26:20.238Z,2.90
2022-12-22T21:28:46.862Z,2.30
2022-12-22T21:31:13.545Z,2.63
2022-12-22T21:33:40.172Z,2.45
2022-12-22T21:36:14.025Z,2.80
2022-12-22T21:38:40.574Z,3.90
2022-12-22T21:41:07.075Z,12.57
2022-12-22T21:43:33.611Z,9.20
2022-12-22T21:46:00.163Z,14.15
2022-12-22T21:48:26.754Z,19.92
2022-12-22T21:50:53.327Z,12.93
2022-12-22T21:53:22.477Z,10.23
2022-12-22T21:55:49.402Z,11.18
2022-12-22T21:58:16.070Z,26.50
2022-12-22T22:00:44.242Z,11.35
2022-12-22T22:03:10.826Z,9.40
2022-12-22T22:05:38.371Z,11.68
2022-12-22T22:08:06.992Z,5.28
2022-12-22T22:10:34.712Z,5.38
2022-12-22T22:13:01.972Z,5.32
2022-12-22T22:15:29.293Z,9.23
2022-12-22T22:17:58.676Z,5.90
2022-12-22T22:20:31.188Z,3.00
2022-12-22T22:22:58.540Z,3.97
2022-12-22T22:25:25.495Z,2.08
2022-12-22T22:27:52.107Z,3.20
2022-12-22T22:30:22.874Z,2.20
2022-12-22T22:32:49.395Z,1.90
2022-12-22T22:35:16.582Z,2.40
2022-12-22T22:37:45.154Z,1.73
2022-12-22T22:40:13.442Z,2.28
2022-12-22T22:42:40.327Z,1.90
2022-12-22T22:45:07.047Z,1.42
2022-12-22T22:47:35.641Z,2.08
2022-12-22T22:50:06.917Z,1.67
2022-12-22T22:52:33.781Z,1.60
2022-12-22T22:55:00.275Z,1.55
2022-12-22T22:57:26.879Z,1.95
2022-12-22T22:59:53.333Z,1.85
2022-12-22T23:02:20.386Z,1.48
2022-12-22T23:04:47.029Z,2.10
2022-12-22T23:07:13.525Z,2.45
2022-12-22T23:09:40.047Z,1.60
2022-12-22T23:12:06.638Z,1.65
2022-12-22T23:14:33.150Z,1.73
2022-12-22T23:16:59.791Z,1.65
2022-12-22T23:19:26.554Z,1.73
2022-12-22T23:21:53.114Z,1.65
2022-12-22T23:24:19.626Z,2.20
2022-12-22T23:26:46.177Z,1.80
2022-12-22T23:29:12.750Z,1.50
2022-12-22T23:31:39.290Z,2.25
2022-12-22T23:34:05.831Z,2.97
2022-12-22T23:36:32.892Z,2.03
2022-12-22T23:38:59.532Z,1.95
2022-12-22T23:41:26.079Z,2.47
2022-12-22T23:43:53.075Z,1.98
2022-12-22T23:46:19.631Z,1.50
2022-12-22T23:48:50.125Z,1.63
2022-12-22T23:51:16.893Z,2.00
2022-12-22T23:53:43.382Z,1.98
2022-12-22T23:56:09.860Z,1.88
2022-12-22T23:58:36.377Z,2.90
